Latest Weather Observations for Holsworthy

IDN60901

Issued at 11:01 am EDT Monday 20 November 2017 (issued every 10 minutes, with the page automatically refreshed every 10 minutes)

About weather observations | Map of Sydney area stations | Latest observations for Sydney area | Other Formats
Station Details ID: 066161 Name: HOLSWORTHY AERODROME AWS Lat: -33.99 Lon: 150.95 Height: 68.16 m
Data from the previous 72 hours. | See also: Recent months at Holsworthy
Date/Time
EDT
Temp
°C
App
Temp
°C
Dew
Point
°C
Rel
Hum
%
Delta-T
°C
Wind Press
QNH
hPa
Press
MSL
hPa
Rain since
9am
mm
Dir  Spd
km/h
Gust
km/h
Spd
kts
Gust
kts
20/11:00am 19.1 19.3 15.8 81 2.0 SSE 9 15 5 8 1026.3 1026.1 0.0
20/10:30am 19.0 18.5 14.9 77 2.4 SSE 11 15 6 8 1026.2 1026.0 0.0
20/10:00am 18.9 17.8 14.4 75 2.6 SSE 13 19 7 10 1026.2 1026.0 0.0
20/09:30am 17.9 15.7 14.8 82 1.8 SE 20 26 11 14 1026.4 1026.2 0.0
20/09:00am 17.8 16.2 14.9 83 1.7 ESE 17 22 9 12 1026.2 1026.0 0.0
20/08:30am 19.3 17.6 13.5 69 3.3 SE 15 20 8 11 1025.8 1025.6 0.0
20/08:00am 19.6 18.2 13.3 67 3.6 SE 13 17 7 9 1025.6 1025.4 0.0
20/07:30am 19.0 18.6 13.0 68 3.4 SSE 7 15 4 8 1025.2 1025.0 0.0
20/07:00am 18.1 17.6 12.8 71 3.0 SE 7 11 4 6 1025.0 1024.8 0.0
20/06:30am 16.8 17.3 12.9 78 2.2 S 2 7 1 4 1024.6 1024.4 0.0
20/06:00am 16.5 16.0 12.7 78 2.1 S 7 9 4 5 1024.4 1024.2 0.0
20/05:30am 16.4 15.5 12.6 78 2.1 S 9 13 5 7 1024.2 1024.0 0.0
20/05:00am 16.3 15.5 12.8 80 1.9 SSW 9 13 5 7 1024.0 1023.8 0.0
20/04:30am 15.8 15.1 13.1 84 1.5 SW 9 11 5 6 1024.1 1023.9 0.0
20/04:00am 15.4 14.2 12.9 85 1.4 SW 11 13 6 7 1024.0 1023.8 0.0
20/03:30am 15.5 15.0 12.8 84 1.5 WSW 7 9 4 5 1024.0 1023.8 0.0
20/03:00am 16.7 16.2 12.7 77 2.2 S 7 9 4 5 1024.1 1023.9 0.0
20/02:30am 16.0 14.4 12.7 81 1.8 SSW 13 15 7 8 1024.1 1023.9 0.0
20/02:00am 16.2 15.8 12.9 81 1.8 S 7 9 4 5 1024.4 1024.2 0.0
20/01:30am 15.8 14.9 12.5 81 1.8 SSW 9 11 5 6 1024.5 1024.3 0.0
20/01:00am 15.9 15.0 12.5 80 1.9 S 9 11 5 6 1024.5 1024.3 0.0
20/12:30am 16.2 15.3 12.7 80 1.9 SSE 9 11 5 6 1024.8 1024.6 0.0
20/12:00am 16.5 15.7 12.8 79 2.0 SSE 9 9 5 5 1024.9 1024.7 0.0
 
Date/Time
EDT
Temp
°C
App
Temp
°C
Dew
Point
°C
Rel
Hum
%
Delta-T
°C
Wind Press
QNH
hPa
Press
MSL
hPa
Rain since
9am
mm
Dir  Spd
km/h
Gust
km/h
Spd
kts
Gust
kts
19/11:30pm 17.4 16.7 13.1 76 2.4 SE 9 13 5 7 1025.0 1024.8 0.0
19/11:00pm 17.5 16.9 13.4 77 2.3 SE 9 11 5 6 1025.0 1024.8 0.0
19/10:30pm 17.9 16.6 13.8 77 2.3 SE 13 19 7 10 1025.1 1024.9 0.0
19/10:00pm 17.0 16.7 13.3 79 2.1 SSE 7 9 4 5 1025.1 1024.9 0.0
19/09:30pm 17.6 17.1 13.7 78 2.2 SSE 9 11 5 6 1025.0 1024.8 0.0
19/09:00pm 18.5 17.2 13.8 74 2.7 ESE 13 19 7 10 1024.7 1024.5 0.0
19/08:30pm 18.7 17.5 14.0 74 2.7 ESE 13 17 7 9 1024.2 1024.0 0.0
19/08:00pm 18.7 17.3 14.4 76 2.5 E 15 20 8 11 1023.9 1023.7 0.0
19/07:30pm 19.2 17.5 14.7 75 2.6 ESE 17 26 9 14 1023.9 1023.7 0.0
19/07:00pm 20.4 18.2 14.3 68 3.5 ESE 19 26 10 14 1023.5 1023.3 0.0
19/06:30pm 21.0 18.7 14.2 65 4.0 ESE 19 28 10 15 1023.2 1023.0 0.0
19/06:00pm 20.7 18.5 14.4 67 3.7 ESE 19 28 10 15 1023.0 1022.8 0.0
19/05:30pm 21.6 19.4 14.5 64 4.2 E 19 28 10 15 1022.9 1022.7 0.0
19/05:00pm 22.7 19.4 12.9 54 5.6 SE 22 32 12 17 1022.6 1022.4 0.0
19/04:30pm 22.2 19.2 12.7 55 5.4 ESE 20 35 11 19 1022.5 1022.3 0.0
19/04:00pm 22.7 20.0 12.9 54 5.6 E 19 28 10 15 1022.7 1022.5 0.0
19/03:30pm 22.6 19.5 12.3 52 5.9 ESE 20 30 11 16 1022.7 1022.5 0.0
19/03:00pm 23.7 20.7 13.6 53 5.9 ESE 22 32 12 17 1022.9 1022.7 0.0
19/02:30pm 23.4 20.4 12.7 51 6.1 E 20 33 11 18 1023.1 1022.9 0.0
19/02:00pm 23.7 19.9 11.1 45 7.0 ESE 22 32 12 17 1023.3 1023.1 0.0
19/01:30pm 23.9 21.1 13.2 51 6.2 E 20 32 11 17 1023.3 1023.1 0.0
19/01:00pm 24.0 20.6 11.3 45 7.1 ESE 20 28 11 15 1023.3 1023.1 0.0
19/12:30pm 24.0 21.2 11.3 45 7.1 E 17 26 9 14 1023.3 1023.1 0.0
19/12:00pm 22.7 19.8 11.1 48 6.4 ESE 17 28 9 15 1023.5 1023.3 0.0
19/11:30am 22.1 18.6 10.3 47 6.5 ESE 19 28 10 15 1023.8 1023.6 0.0
19/11:00am 23.0 20.0 10.8 46 6.7 E 17 30 9 16 1023.8 1023.6 0.0
19/10:30am 22.4 18.7 11.5 50 6.1 SE 22 32 12 17 1023.8 1023.6 0.0
19/10:00am 22.1 19.0 12.1 53 5.6 ESE 20 32 11 17 1023.8 1023.6 0.0
19/09:30am 20.4 19.5 12.6 61 4.4 ESE 9 15 5 8 1023.8 1023.6 0.0
19/09:00am 19.9 18.6 13.8 68 3.5 SE 13 17 7 9 1023.9 1023.7 0.6
19/08:30am 20.0 18.7 13.7 67 3.6 ENE 13 20 7 11 1023.8 1023.6 0.6
19/08:00am 20.2 19.8 14.1 68 3.5 ESE 9 15 5 8 1023.6 1023.4 0.6
19/07:30am 18.8 18.2 13.6 72 3.0 SSE 9 11 5 6 1023.3 1023.1 0.6
19/07:00am 17.8 17.1 13.1 74 2.6 SSE 9 11 5 6 1022.8 1022.6 0.6
19/06:30am 16.6 16.1 13.9 84 1.5 SSE 9 13 5 7 1022.4 1022.2 0.6
19/06:00am 15.8 15.2 13.5 86 1.3 SE 9 9 5 5 1022.0 1021.8 0.6
19/05:30am 16.2 15.3 13.7 85 1.4 SE 11 13 6 7 1021.8 1021.6 0.6
19/05:00am 16.2 15.4 14.0 87 1.2 SE 11 13 6 7 1021.5 1021.3 0.6
19/04:30am 16.0 15.6 14.0 88 1.1 SE 9 11 5 6 1021.2 1021.0 0.6
19/04:00am 16.3 15.7 14.5 89 1.0 SE 11 11 6 6 1021.1 1020.9 0.6
19/03:30am 16.7 16.5 14.7 88 1.2 SE 9 13 5 7 1021.0 1020.8 0.6
19/03:00am 16.6 16.1 15.0 90 0.9 SE 11 15 6 8 1020.8 1020.6 0.6
19/02:30am 16.4 15.9 14.9 91 0.9 SE 11 15 6 8 1020.8 1020.6 0.6
19/02:00am 16.6 16.9 15.1 91 0.9 SSE 7 11 4 6 1020.9 1020.7 0.6
19/01:30am 17.2 16.2 14.5 84 1.6 ESE 13 19 7 10 1021.1 1020.9 0.4
19/01:00am 17.3 15.6 13.6 79 2.1 ESE 15 22 8 12 1021.4 1021.2 0.4
19/12:30am 17.4 16.4 14.5 83 1.7 E 13 19 7 10 1021.7 1021.5 0.4
19/12:00am 17.4 16.4 14.7 84 1.6 E 13 19 7 10 1021.9 1021.7 0.4
 
Date/Time
EDT
Temp
°C
App
Temp
°C
Dew
Point
°C
Rel
Hum
%
Delta-T
°C
Wind Press
QNH
hPa
Press
MSL
hPa
Rain since
9am
mm
Dir  Spd
km/h
Gust
km/h
Spd
kts
Gust
kts
18/11:30pm 17.4 16.9 14.9 85 1.5 E 11 17 6 9 1021.8 1021.6 0.4
18/11:00pm 17.2 16.3 14.8 86 1.4 E 13 22 7 12 1021.8 1021.6 0.4
18/10:30pm 17.2 15.7 15.2 88 1.2 E 17 20 9 11 1021.8 1021.6 0.2
18/10:17pm 17.1 16.7 15.3 89 1.1 E 11 17 6 9 1021.7 1021.5 0.2
18/10:00pm 16.9 14.8 15.1 89 1.0 E 20 35 11 19 1021.8 1021.6 0.2
18/09:58pm 17.0 14.8 15.0 88 1.2 E 20 35 11 19 1021.8 1021.6 0.2
18/09:30pm 18.8 16.1 13.4 71 3.1 E 20 32 11 17 1021.5 1021.3 0.0
18/09:00pm 19.3 17.3 13.9 71 3.1 E 17 24 9 13 1021.3 1021.1 0.0
18/08:30pm 19.9 18.5 14.5 71 3.2 E 15 30 8 16 1020.8 1020.6 0.0
18/08:00pm 19.9 18.4 14.3 70 3.2 E 15 26 8 14 1020.6 1020.4 0.0
18/07:30pm 20.2 17.5 13.4 65 3.9 ENE 20 32 11 17 1020.2 1020.0 0.0
18/07:00pm 20.2 18.0 14.3 69 3.4 ENE 19 33 10 18 1019.8 1019.6 0.0
18/06:30pm 20.2 17.5 14.6 70 3.3 NE 22 35 12 19 1019.5 1019.3 0.0
18/06:00pm 21.1 19.3 14.5 66 3.9 ENE 17 28 9 15 1019.3 1019.1 0.0
18/05:30pm 20.1 18.3 14.5 70 3.3 ENE 17 30 9 16 1019.3 1019.1 0.0
18/05:00pm 21.2 18.9 14.1 64 4.1 ENE 19 28 10 15 1019.3 1019.1 0.0
18/04:30pm 21.4 18.9 13.6 61 4.5 ENE 19 28 10 15 1019.4 1019.2 0.0
18/04:00pm 21.6 18.8 14.3 63 4.3 E 22 35 12 19 1019.4 1019.2 0.0
18/03:30pm 21.6 18.9 13.5 60 4.7 ENE 20 35 11 19 1019.5 1019.3 0.0
18/03:00pm 21.9 18.2 13.8 60 4.7 E 26 41 14 22 1019.5 1019.3 0.0
18/02:30pm 21.7 18.1 14.1 62 4.4 ENE 26 39 14 21 1019.5 1019.3 0.0
18/02:00pm 22.5 18.6 14.4 60 4.8 E 28 43 15 23 1019.5 1019.3 0.0
18/01:30pm 22.2 18.6 14.3 61 4.6 ENE 26 39 14 21 1019.7 1019.5 0.0
18/01:00pm 21.4 17.6 14.6 65 4.0 E 28 44 15 24 1020.0 1019.8 0.0
18/12:30pm 21.8 18.3 15.4 67 3.8 ENE 28 46 15 25 1020.2 1020.0 0.0
18/12:24pm 21.4 17.7 15.0 67 3.8 ENE 28 46 15 25 1020.1 1019.9 0.0
18/12:00pm 21.4 17.9 14.6 65 4.0 ENE 26 39 14 21 1020.4 1020.2 0.0
18/11:30am 21.6 17.8 14.7 65 4.1 ENE 28 43 15 23 1020.3 1020.1 0.0
18/11:00am 20.5 18.1 15.3 72 3.1 E 22 30 12 16 1020.3 1020.1 0.0
18/10:30am 20.6 17.5 14.5 68 3.6 NE 24 39 13 21 1020.1 1019.9 0.0
18/10:00am 21.1 18.2 15.0 68 3.6 ENE 24 33 13 18 1019.8 1019.6 0.0
18/09:30am 20.3 18.5 15.5 74 2.9 E 19 30 10 16 1019.8 1019.6 0.0
18/09:00am 21.2 18.9 14.6 66 3.9 ENE 20 28 11 15 1019.6 1019.4 0.0
18/08:30am 21.9 19.2 14.5 63 4.4 NE 22 32 12 17 1019.5 1019.3 0.0
18/08:00am 21.0 18.9 14.6 67 3.7 NE 19 33 10 18 1019.3 1019.1 0.0
18/07:30am 20.3 18.7 15.1 72 3.1 NE 17 32 9 17 1019.1 1018.9 0.0
18/07:00am 19.7 17.8 15.1 75 2.7 ENE 19 32 10 17 1018.8 1018.6 0.0
18/06:30am 19.6 18.0 15.0 75 2.7 ENE 17 20 9 11 1018.7 1018.5 0.0
18/06:00am 19.5 18.3 15.0 75 2.6 ENE 15 26 8 14 1018.5 1018.3 0.0
18/05:30am 19.4 18.4 14.6 74 2.8 ENE 13 20 7 11 1018.2 1018.0 0.0
18/05:00am 19.5 18.1 14.5 73 2.9 ENE 15 26 8 14 1017.7 1017.5 0.0
18/04:30am 19.6 18.2 14.4 72 3.0 ENE 15 20 8 11 1017.6 1017.4 0.0
18/04:00am 19.5 18.1 14.5 73 2.9 ENE 15 24 8 13 1017.8 1017.6 0.0
18/03:30am 19.7 18.7 14.5 72 3.0 ENE 13 20 7 11 1017.8 1017.6 0.0
18/03:00am 19.8 18.9 14.8 73 2.9 ENE 13 24 7 13 1018.0 1017.8 0.0
18/02:30am 19.9 18.2 14.7 72 3.0 ENE 17 24 9 13 1017.9 1017.7 0.0
18/02:00am 20.1 19.1 14.5 70 3.3 ENE 13 24 7 13 1018.0 1017.8 0.0
18/01:30am 20.2 18.9 14.8 71 3.2 NE 15 26 8 14 1018.4 1018.2 0.0
18/01:00am 20.0 19.8 14.8 72 3.0 ENE 9 15 5 8 1018.9 1018.7 0.0
18/12:30am 20.1 19.6 14.9 72 3.1 NE 11 17 6 9 1018.8 1018.6 0.0
18/12:00am 20.2 19.0 15.0 72 3.1 NE 15 26 8 14 1018.9 1018.7 0.0
 
Date/Time
EDT
Temp
°C
App
Temp
°C
Dew
Point
°C
Rel
Hum
%
Delta-T
°C
Wind Press
QNH
hPa
Press
MSL
hPa
Rain since
9am
mm
Dir  Spd
km/h
Gust
km/h
Spd
kts
Gust
kts
17/11:30pm 20.2 19.4 15.2 73 3.0 NE 13 26 7 14 1019.0 1018.8 0.0
17/11:00pm 20.1 19.0 15.3 74 2.8 ENE 15 24 8 13 1019.1 1018.9 0.0
17/10:30pm 20.2 19.4 15.2 73 3.0 NE 13 22 7 12 1019.0 1018.8 0.0
17/10:00pm 20.3 18.7 15.1 72 3.1 NE 17 26 9 14 1018.7 1018.5 0.0
17/09:30pm 20.5 18.9 15.1 71 3.2 ENE 17 26 9 14 1018.5 1018.3 0.0
17/09:00pm 20.8 18.8 14.9 69 3.5 ENE 19 28 10 15 1018.6 1018.4 0.0
17/08:30pm 21.0 19.7 14.9 68 3.6 NE 15 28 8 15 1018.4 1018.2 0.0
17/08:00pm 21.1 19.1 15.0 68 3.6 ENE 19 32 10 17 1017.9 1017.7 0.0
17/07:30pm 21.2 19.1 14.8 67 3.8 ENE 19 33 10 18 1017.8 1017.6 0.0
17/07:00pm 21.4 17.9 14.6 65 4.0 ENE 26 43 14 23 1017.3 1017.1 0.0
17/06:30pm 21.5 18.0 14.4 64 4.2 ENE 26 39 14 21 1017.3 1017.1 0.0
17/06:00pm 22.1 18.4 14.0 60 4.7 ENE 26 44 14 24 1016.9 1016.7 0.0
17/05:33pm 22.6 18.7 14.4 60 4.8 ENE 28 46 15 25 1016.2 1016.0 0.0
17/05:30pm 22.7 18.7 14.0 58 5.1 NE 28 44 15 24 1016.2 1016.0 0.0
17/05:20pm 22.6 18.6 14.2 59 4.9 ENE 28 50 15 27 1016.1 1015.9 0.0
17/05:00pm 22.4 18.8 15.3 64 4.2 ENE 28 41 15 22 1016.2 1016.0 0.0
17/04:52pm 22.2 18.4 14.8 63 4.4 ENE 28 48 15 26 1016.0 1015.8 0.0
17/04:30pm 22.9 18.7 13.4 55 5.5 ENE 28 41 15 22 1016.3 1016.1 0.0
17/04:00pm 22.7 18.1 12.3 52 5.9 ENE 28 46 15 25 1016.1 1015.9 0.0
17/03:59pm 22.6 18.0 12.3 52 5.9 ENE 28 46 15 25 1016.0 1015.8 0.0
17/03:30pm 22.3 18.1 13.4 57 5.2 ENE 28 44 15 24 1016.3 1016.1 0.0
17/03:00pm 22.7 18.9 14.8 61 4.7 ENE 28 43 15 23 1016.5 1016.3 0.0
17/02:30pm 23.3 19.6 15.1 60 4.9 ENE 28 41 15 22 1016.7 1016.5 0.0
17/02:00pm 23.9 21.0 15.1 58 5.3 ENE 24 37 13 20 1016.5 1016.3 0.0
17/01:30pm 24.8 22.1 15.7 57 5.5 ENE 24 32 13 17 1016.8 1016.6 0.0
17/01:00pm 24.2 21.3 16.2 61 4.9 ENE 26 37 14 20 1017.2 1017.0 0.0
17/12:30pm 24.4 22.6 16.1 60 5.1 ENE 20 32 11 17 1017.3 1017.1 0.0
17/12:00pm 24.1 22.2 15.1 57 5.4 ENE 19 26 10 14 1017.6 1017.4 0.0
17/11:30am 23.6 21.5 14.6 57 5.3 ENE 19 30 10 16 1017.8 1017.6 0.0

Latest Capital City Observations: Canberra | Sydney | Melbourne | Brisbane | Adelaide | Perth | Hobart | Darwin

Other Formats:

Comma delimited format used in spreadsheet applications
http://www.bom.gov.au/fwo/IDN60901/IDN60901.95761.axf

JavaScript Object Notation format (JSON) in row-major order
http://www.bom.gov.au/fwo/IDN60901/IDN60901.95761.json